Time;durP1;ratioP1;P1;durP2;ratioP2;P2;SDS_P1;SDS_P2;PMS_P1;PMS_P2;Temp;Humidity;BMP_temperature;BMP_pressure;BME280_temperature;BME280_humidity;BME280_pressure;Samples;Min_cycle;Max_cycle;Signal;HPM_P1;HPM_P2
2022/05/28 00:00:39;;;;;;;8.38;2.38;;;14.00;99.90;;;;;;4183778;28;20537;-66
2022/05/28 00:02:40;;;;;;;12.45;2.40;;;14.00;99.90;;;;;;4180244;28;20025;-66
2022/05/28 00:04:40;;;;;;;4.10;1.70;;;14.00;99.90;;;;;;4183272;28;20533;-66
2022/05/28 00:06:41;;;;;;;10.73;2.38;;;13.90;99.90;;;;;;4186605;28;20434;-66
2022/05/28 00:08:42;;;;;;;6.75;1.90;;;13.90;99.90;;;;;;4185861;28;20032;-66
2022/05/28 00:10:44;;;;;;;7.40;2.33;;;13.90;99.90;;;;;;4187553;28;20037;-66
2022/05/28 00:12:45;;;;;;;6.30;1.80;;;13.90;99.90;;;;;;4186893;28;20028;-66
2022/05/28 00:14:46;;;;;;;8.07;1.92;;;13.80;99.90;;;;;;4187973;28;20658;-66
2022/05/28 00:16:46;;;;;;;9.30;2.10;;;13.90;99.90;;;;;;4181647;28;20036;-66
2022/05/28 00:18:49;;;;;;;7.57;2.35;;;13.90;99.90;;;;;;4191203;28;20400;-66
2022/05/28 00:20:49;;;;;;;6.93;2.15;;;13.90;99.90;;;;;;4181874;28;20468;-66
2022/05/28 00:22:50;;;;;;;8.70;2.53;;;13.80;99.90;;;;;;4187409;28;20090;-66
2022/05/28 00:24:50;;;;;;;6.38;1.75;;;13.80;99.90;;;;;;4187032;28;20056;-66
2022/05/28 00:26:51;;;;;;;9.38;2.65;;;13.80;99.90;;;;;;4189445;28;20033;-66
2022/05/28 00:28:52;;;;;;;11.68;2.10;;;13.80;99.90;;;;;;4185876;28;20119;-66
2022/05/28 00:30:52;;;;;;;9.82;2.13;;;13.80;99.90;;;;;;4185408;28;20071;-66
2022/05/28 00:32:53;;;;;;;13.27;2.70;;;13.80;99.90;;;;;;4186667;28;20396;-66
2022/05/28 00:34:53;;;;;;;17.05;3.00;;;13.70;99.90;;;;;;4190529;28;20473;-66
2022/05/28 00:36:54;;;;;;;11.00;2.42;;;13.70;99.90;;;;;;4191838;28;20029;-66
2022/05/28 00:38:55;;;;;;;9.98;2.47;;;13.70;99.90;;;;;;4190843;28;20104;-66
2022/05/28 00:40:59;;;;;;;7.40;1.98;;;13.70;99.90;;;;;;4191096;28;20397;-66
2022/05/28 00:43:01;;;;;;;9.05;2.50;;;13.70;99.90;;;;;;4191320;28;20044;-66
2022/05/28 00:45:02;;;;;;;;;;;13.70;99.90;;;;;;4185488;28;20033;-68
2022/05/28 00:47:05;;;;;;;6.50;2.10;;;13.70;99.90;;;;;;4179779;28;19912;-66
2022/05/28 00:49:09;;;;;;;8.50;2.58;;;13.70;99.90;;;;;;4186571;28;20488;-66
2022/05/28 00:51:32;;;;;;;13.73;3.17;;;13.70;99.90;;;;;;4187058;28;20032;-66
2022/05/28 00:53:34;;;;;;;9.18;2.65;;;13.70;99.90;;;;;;4172081;28;20032;-66
2022/05/28 00:55:35;;;;;;;8.27;2.20;;;13.70;99.90;;;;;;4174335;28;20032;-66
2022/05/28 00:57:39;;;;;;;9.57;2.47;;;13.70;99.90;;;;;;4167817;28;20064;-66
2022/05/28 00:59:40;;;;;;;9.27;2.90;;;13.70;99.90;;;;;;4170523;28;20548;-66
2022/05/28 01:01:41;;;;;;;11.25;2.70;;;13.70;99.90;;;;;;4167401;28;20057;-66
2022/05/28 01:03:57;;;;;;;10.13;2.50;;;13.70;99.90;;;;;;4171418;28;20040;-66
2022/05/28 01:06:06;;;;;;;8.20;2.42;;;13.70;99.90;;;;;;4168371;28;20037;-65
2022/05/28 01:08:30;;;;;;;5.80;1.92;;;13.70;99.90;;;;;;4185836;28;20037;-67
2022/05/28 01:10:51;;;;;;;12.27;2.90;;;13.70;99.90;;;;;;4172048;28;20091;-66
2022/05/28 01:13:18;;;;;;;7.18;1.95;;;13.70;99.90;;;;;;4187597;28;20032;-66
2022/05/28 01:15:58;;;;;;;10.77;2.65;;;13.80;99.90;;;;;;4183867;28;20067;-66
2022/05/28 01:18:07;;;;;;;6.00;2.30;;;13.80;99.90;;;;;;4189531;28;20621;-66
2022/05/28 01:20:27;;;;;;;7.50;2.20;;;13.70;99.90;;;;;;4184787;28;20116;-67
2022/05/28 01:22:48;;;;;;;7.30;1.70;;;13.70;99.90;;;;;;4185941;28;20074;-66
2022/05/28 01:25:10;;;;;;;10.45;2.70;;;13.80;99.90;;;;;;4191187;28;20116;-66
2022/05/28 01:27:15;;;;;;;10.87;2.97;;;13.70;99.90;;;;;;4186108;28;20028;-66
2022/05/28 01:29:18;;;;;;;9.82;2.65;;;13.70;99.90;;;;;;4190830;28;20033;-66
2022/05/28 01:31:20;;;;;;;7.22;2.38;;;13.70;99.90;;;;;;4185023;28;20167;-66
2022/05/28 01:33:22;;;;;;;6.25;2.13;;;13.60;99.90;;;;;;4191031;28;20040;-66
2022/05/28 01:35:25;;;;;;;7.15;2.22;;;13.70;99.90;;;;;;4188760;28;20514;-66
2022/05/28 01:37:26;;;;;;;8.10;2.08;;;13.70;99.90;;;;;;4186839;28;20035;-65
2022/05/28 01:39:28;;;;;;;8.85;2.50;;;13.70;99.90;;;;;;4191092;28;20081;-65
2022/05/28 01:41:31;;;;;;;9.02;2.30;;;13.70;99.90;;;;;;4189429;28;20506;-66
2022/05/28 01:43:37;;;;;;;8.25;2.42;;;13.70;99.90;;;;;;4190439;28;20063;-65
2022/05/28 01:45:41;;;;;;;10.93;3.10;;;13.70;99.90;;;;;;4185928;28;20497;-66
2022/05/28 01:47:44;;;;;;;11.02;3.10;;;13.80;99.90;;;;;;4186057;28;20039;-66
2022/05/28 01:49:46;;;;;;;9.55;2.17;;;13.70;99.90;;;;;;4191568;28;20433;-66
2022/05/28 01:51:57;;;;;;;6.82;2.05;;;13.80;99.90;;;;;;4189277;28;20072;-66
2022/05/28 01:54:07;;;;;;;9.18;3.10;;;13.70;99.90;;;;;;4185647;28;20113;-66
2022/05/28 01:56:08;;;;;;;6.47;2.40;;;13.70;99.90;;;;;;4182582;28;20044;-66
2022/05/28 01:58:09;;;;;;;12.50;3.22;;;13.70;99.90;;;;;;4183286;28;20108;-66
2022/05/28 02:00:10;;;;;;;8.95;2.72;;;13.70;99.90;;;;;;4184294;28;20526;-66
2022/05/28 02:02:13;;;;;;;11.00;2.75;;;13.70;99.90;;;;;;4186803;28;20029;-66
2022/05/28 02:04:14;;;;;;;10.18;2.47;;;13.70;99.90;;;;;;4187012;28;20389;-66
2022/05/28 02:06:14;;;;;;;10.50;2.63;;;13.70;99.90;;;;;;4185769;28;20127;-66
2022/05/28 02:08:15;;;;;;;9.85;2.75;;;13.70;99.90;;;;;;4191709;28;20048;-66
2022/05/28 02:10:18;;;;;;;10.88;3.25;;;13.60;99.90;;;;;;4182559;28;20036;-66
2022/05/28 02:12:18;;;;;;;13.40;2.95;;;13.60;99.90;;;;;;4185974;28;20043;-66
2022/05/28 02:14:40;;;;;;;10.25;2.65;;;13.60;99.90;;;;;;4183164;28;20127;-66
2022/05/28 02:16:57;;;;;;;12.13;2.75;;;13.60;99.90;;;;;;4186145;28;20111;-66
2022/05/28 02:19:01;;;;;;;9.60;2.55;;;13.50;99.90;;;;;;4186672;28;20171;-66
2022/05/28 02:21:09;;;;;;;10.20;3.00;;;13.40;99.90;;;;;;4186105;28;20037;-66
2022/05/28 02:23:22;;;;;;;10.50;2.95;;;13.40;99.90;;;;;;4187580;28;20093;-65
2022/05/28 02:25:33;;;;;;;10.02;2.75;;;13.40;99.90;;;;;;4185897;28;20052;-66
2022/05/28 02:27:35;;;;;;;10.40;2.85;;;13.40;99.90;;;;;;4190592;28;20029;-66
2022/05/28 02:29:36;;;;;;;8.00;2.70;;;13.40;99.90;;;;;;4187947;28;20039;-65
2022/05/28 02:31:37;;;;;;;10.65;3.33;;;13.40;99.90;;;;;;4186038;28;20111;-65
2022/05/28 02:33:37;;;;;;;11.20;2.90;;;13.30;99.90;;;;;;4187782;28;20029;-65
2022/05/28 02:35:39;;;;;;;11.32;3.05;;;13.40;99.90;;;;;;4188670;28;20033;-65
2022/05/28 02:37:40;;;;;;;9.00;2.38;;;13.30;99.90;;;;;;4190488;28;20487;-65
2022/05/28 02:39:41;;;;;;;9.55;2.72;;;13.30;99.90;;;;;;4183556;28;20044;-66
2022/05/28 02:41:42;;;;;;;12.15;3.03;;;13.30;99.90;;;;;;4189008;28;20025;-66
2022/05/28 02:43:43;;;;;;;10.95;3.15;;;13.30;99.90;;;;;;4191037;28;20369;-65
2022/05/28 02:45:43;;;;;;;10.65;3.22;;;13.20;99.90;;;;;;4183088;28;20393;-66
2022/05/28 02:47:44;;;;;;;12.20;2.63;;;13.20;99.90;;;;;;4183926;28;20053;-65
2022/05/28 02:49:44;;;;;;;11.23;3.20;;;13.20;99.90;;;;;;4184446;28;20065;-66
2022/05/28 02:51:45;;;;;;;10.88;2.92;;;13.20;99.90;;;;;;4183713;28;20021;-66
2022/05/28 02:53:47;;;;;;;13.13;3.20;;;13.20;99.90;;;;;;4184969;28;20039;-65
2022/05/28 02:55:47;;;;;;;10.43;3.28;;;13.10;99.90;;;;;;4187815;28;20387;-65
2022/05/28 02:57:48;;;;;;;9.13;2.80;;;13.20;99.90;;;;;;4182976;28;20033;-66
2022/05/28 02:59:48;;;;;;;9.98;2.90;;;13.10;99.90;;;;;;4187782;28;20568;-66
2022/05/28 03:01:50;;;;;;;12.32;2.70;;;13.10;99.90;;;;;;4189119;28;20112;-66
2022/05/28 03:03:52;;;;;;;9.75;2.47;;;13.10;99.90;;;;;;4187742;28;20055;-66
2022/05/28 03:05:52;;;;;;;12.52;3.05;;;13.00;99.90;;;;;;4186603;28;20032;-66
2022/05/28 03:07:53;;;;;;;7.32;2.42;;;13.00;99.90;;;;;;4189016;28;20426;-66
2022/05/28 03:09:54;;;;;;;14.18;3.55;;;13.10;99.90;;;;;;4188712;28;20096;-66
2022/05/28 03:11:54;;;;;;;15.95;3.35;;;13.00;99.90;;;;;;4190515;28;20059;-65
2022/05/28 03:13:55;;;;;;;7.93;2.70;;;13.00;99.90;;;;;;4191250;28;20535;-65
2022/05/28 03:15:55;;;;;;;17.85;4.03;;;13.00;99.90;;;;;;4190732;28;20031;-66
2022/05/28 03:17:59;;;;;;;12.95;2.97;;;13.00;99.90;;;;;;4189799;28;20426;-65
2022/05/28 03:20:01;;;;;;;11.88;3.42;;;13.00;99.90;;;;;;4191483;28;21127;-65
2022/05/28 03:22:02;;;;;;;11.38;3.42;;;13.00;99.90;;;;;;4189257;28;20021;-66
2022/05/28 03:24:03;;;;;;;11.35;2.88;;;13.00;99.90;;;;;;4183898;28;20102;-66
2022/05/28 03:26:13;;;;;;;12.25;3.38;;;13.00;99.90;;;;;;4188745;28;20032;-65
2022/05/28 03:28:14;;;;;;;12.07;2.97;;;13.00;99.90;;;;;;4189917;28;20490;-66
2022/05/28 03:30:15;;;;;;;8.02;3.28;;;13.00;99.90;;;;;;4189287;28;20025;-66
2022/05/28 03:32:15;;;;;;;13.27;2.80;;;13.00;99.90;;;;;;4189163;28;20037;-66
2022/05/28 03:34:16;;;;;;;10.20;2.72;;;13.00;99.90;;;;;;4192796;28;20041;-65
2022/05/28 03:36:18;;;;;;;8.50;3.00;;;13.00;99.90;;;;;;4191893;28;20040;-65
2022/05/28 03:38:18;;;;;;;12.10;3.80;;;13.00;99.90;;;;;;4192367;28;20045;-65
2022/05/28 03:40:19;;;;;;;13.02;3.17;;;13.00;99.90;;;;;;4189494;28;20488;-65
2022/05/28 03:42:20;;;;;;;7.60;3.05;;;13.00;99.90;;;;;;4188451;28;20407;-65
2022/05/28 03:44:20;;;;;;;9.13;2.35;;;12.90;99.90;;;;;;4188913;28;20041;-65
2022/05/28 03:46:28;;;;;;;11.10;2.85;;;13.00;99.90;;;;;;4187451;28;20036;-65
2022/05/28 03:48:31;;;;;;;8.40;2.90;;;13.00;99.90;;;;;;4190882;28;20044;-65
2022/05/28 03:50:31;;;;;;;7.10;2.50;;;13.00;99.90;;;;;;4188192;28;20024;-65
2022/05/28 03:52:32;;;;;;;11.15;2.97;;;13.00;99.90;;;;;;4188461;28;20388;-65
2022/05/28 03:54:33;;;;;;;7.50;2.70;;;13.00;99.90;;;;;;4191455;28;20057;-65
2022/05/28 03:56:39;;;;;;;8.40;2.85;;;13.00;99.90;;;;;;4187343;28;20123;-65
2022/05/28 03:58:40;;;;;;;11.77;2.90;;;13.00;99.90;;;;;;4187181;28;20055;-66
2022/05/28 04:00:41;;;;;;;10.15;2.50;;;13.00;99.90;;;;;;4190009;28;20036;-65
2022/05/28 04:02:41;;;;;;;12.20;2.72;;;13.00;99.90;;;;;;4188874;28;20120;-66
2022/05/28 04:04:42;;;;;;;8.88;2.83;;;13.10;99.90;;;;;;4188981;28;20037;-65
2022/05/28 04:06:43;;;;;;;10.68;2.97;;;13.00;99.90;;;;;;4190241;28;20048;-65
2022/05/28 04:08:43;;;;;;;12.90;3.05;;;13.00;99.90;;;;;;4186954;28;20045;-65
2022/05/28 04:10:44;;;;;;;12.15;3.17;;;13.00;99.90;;;;;;4188742;28;20090;-65
2022/05/28 04:12:44;;;;;;;10.50;3.17;;;13.00;99.90;;;;;;4192412;28;20492;-65
2022/05/28 04:14:46;;;;;;;10.18;2.88;;;13.00;99.90;;;;;;4192435;28;20380;-65
2022/05/28 04:16:46;;;;;;;13.75;3.15;;;13.00;99.90;;;;;;4186944;28;20488;-65
2022/05/28 04:18:47;;;;;;;9.45;2.78;;;12.90;99.90;;;;;;4189659;28;20040;-65
2022/05/28 04:20:49;;;;;;;11.35;2.92;;;12.90;99.90;;;;;;4181941;28;20033;-65
2022/05/28 04:22:50;;;;;;;11.80;3.22;;;12.90;99.90;;;;;;4187844;28;20041;-65
2022/05/28 04:24:51;;;;;;;12.13;3.10;;;12.90;99.90;;;;;;4191094;28;20448;-66
2022/05/28 04:26:51;;;;;;;12.45;3.25;;;12.90;99.90;;;;;;4186190;28;20442;-65
2022/05/28 04:28:52;;;;;;;7.85;2.60;;;12.90;99.90;;;;;;4187264;28;20040;-65
2022/05/28 04:30:52;;;;;;;14.80;3.55;;;12.90;99.90;;;;;;4182035;28;20039;-65
2022/05/28 04:32:53;;;;;;;7.85;3.17;;;13.00;99.90;;;;;;4187456;28;20123;-65
2022/05/28 04:34:53;;;;;;;8.52;2.83;;;13.00;99.90;;;;;;4183931;28;20036;-65
2022/05/28 04:36:54;;;;;;;9.35;3.53;;;13.00;99.90;;;;;;4187734;28;20079;-65
2022/05/28 04:38:55;;;;;;;7.25;2.70;;;13.00;99.90;;;;;;4187306;28;20094;-65
2022/05/28 04:40:55;;;;;;;8.18;3.13;;;13.00;99.90;;;;;;4187208;28;20029;-65
2022/05/28 04:42:56;;;;;;;13.55;3.42;;;13.00;99.90;;;;;;4187519;28;20036;-65
2022/05/28 04:44:57;;;;;;;14.25;3.92;;;13.10;99.90;;;;;;4188080;28;20090;-65
2022/05/28 04:46:57;;;;;;;13.00;3.28;;;13.10;99.90;;;;;;4185667;28;20451;-65
2022/05/28 04:48:58;;;;;;;17.50;3.88;;;13.20;99.90;;;;;;4188768;28;20025;-65
2022/05/28 04:50:58;;;;;;;10.85;3.40;;;13.20;99.90;;;;;;4192925;28;20037;-65
2022/05/28 04:52:59;;;;;;;16.00;3.92;;;13.00;99.90;;;;;;4186591;28;20040;-65
2022/05/28 04:55:00;;;;;;;8.57;2.97;;;13.00;99.90;;;;;;4190100;28;20166;-65
2022/05/28 04:57:00;;;;;;;12.60;3.95;;;13.00;99.90;;;;;;4191462;28;20021;-65
2022/05/28 04:59:01;;;;;;;16.33;4.32;;;13.00;99.90;;;;;;4186536;28;20483;-65
2022/05/28 05:01:02;;;;;;;14.98;3.50;;;13.10;99.90;;;;;;4189803;28;20039;-65
2022/05/28 05:03:02;;;;;;;12.05;3.40;;;13.10;99.90;;;;;;4187413;28;20381;-65
2022/05/28 05:05:03;;;;;;;13.00;3.42;;;13.10;99.90;;;;;;4192558;28;20491;-69
2022/05/28 05:07:04;;;;;;;12.60;3.67;;;13.10;99.90;;;;;;4193226;28;20387;-65
2022/05/28 05:09:05;;;;;;;17.27;4.15;;;13.10;99.90;;;;;;4186623;28;20028;-65
2022/05/28 05:11:05;;;;;;;16.38;4.30;;;13.00;99.90;;;;;;4190731;28;20051;-65
2022/05/28 05:13:07;;;;;;;16.23;3.55;;;13.10;99.90;;;;;;4184170;28;20502;-65
2022/05/28 05:15:08;;;;;;;13.30;3.90;;;13.20;99.90;;;;;;4188450;28;20040;-68
2022/05/28 05:17:08;;;;;;;16.15;3.58;;;13.20;99.90;;;;;;4186204;28;20041;-65
2022/05/28 05:19:09;;;;;;;14.77;3.67;;;13.20;99.90;;;;;;4188327;28;20028;-66
2022/05/28 05:21:13;;;;;;;15.00;3.83;;;13.30;99.90;;;;;;4184390;28;20086;-65
2022/05/28 05:23:13;;;;;;;12.25;3.38;;;13.30;99.90;;;;;;4180311;28;20055;-65
2022/05/28 05:25:14;;;;;;;11.40;3.28;;;13.40;99.90;;;;;;4187155;28;20137;-65
2022/05/28 05:27:15;;;;;;;10.20;2.88;;;13.40;99.90;;;;;;4186810;28;20085;-65
2022/05/28 05:29:16;;;;;;;18.08;4.35;;;13.40;99.90;;;;;;4188607;28;20169;-66
2022/05/28 05:31:16;;;;;;;12.70;2.95;;;13.50;99.90;;;;;;4183241;28;20044;-68
2022/05/28 05:33:17;;;;;;;11.15;3.20;;;13.50;99.90;;;;;;4185479;28;20039;-68
2022/05/28 05:35:18;;;;;;;13.50;3.28;;;13.60;99.90;;;;;;4187526;28;20036;-68
2022/05/28 05:37:19;;;;;;;11.38;3.53;;;13.60;99.90;;;;;;4184193;28;20141;-69
2022/05/28 05:39:19;;;;;;;12.80;3.63;;;13.60;99.90;;;;;;4188807;28;20041;-69
2022/05/28 05:41:20;;;;;;;16.77;3.75;;;13.70;99.90;;;;;;4186308;28;20036;-68
2022/05/28 05:43:21;;;;;;;11.15;3.35;;;13.80;99.90;;;;;;4180498;28;20043;-69
2022/05/28 05:45:21;;;;;;;10.55;3.10;;;13.70;99.90;;;;;;4185786;28;20483;-69
2022/05/28 05:47:22;;;;;;;9.50;2.95;;;13.80;99.90;;;;;;4182422;28;20029;-69
2022/05/28 05:49:22;;;;;;;15.43;3.28;;;13.90;99.90;;;;;;4186131;28;20044;-69
2022/05/28 05:51:23;;;;;;;11.32;2.70;;;14.00;99.90;;;;;;4184705;28;20488;-69
2022/05/28 05:53:24;;;;;;;10.00;2.70;;;14.10;99.90;;;;;;4182998;28;20104;-69
2022/05/28 05:55:25;;;;;;;11.15;3.05;;;14.20;99.90;;;;;;4187445;28;20037;-68
2022/05/28 05:57:25;;;;;;;12.23;2.80;;;14.50;99.90;;;;;;4185118;28;20551;-68
2022/05/28 05:59:26;;;;;;;9.38;2.80;;;14.70;99.90;;;;;;4187142;28;20070;-69
2022/05/28 06:01:27;;;;;;;12.55;2.63;;;14.90;99.90;;;;;;4184954;28;20068;-69
2022/05/28 06:03:28;;;;;;;7.70;2.20;;;15.10;99.90;;;;;;4186895;28;20166;-68
2022/05/28 06:05:29;;;;;;;14.02;2.72;;;15.30;99.90;;;;;;4185714;28;20048;-69
2022/05/28 06:07:30;;;;;;;10.20;2.03;;;15.60;99.90;;;;;;4185785;28;20041;-69
2022/05/28 06:09:30;;;;;;;7.53;2.15;;;15.90;99.90;;;;;;4184540;28;20459;-69
2022/05/28 06:11:32;;;;;;;9.52;2.15;;;16.20;99.90;;;;;;4187138;28;20380;-69
2022/05/28 06:13:32;;;;;;;6.53;1.92;;;16.40;99.90;;;;;;4187034;28;20032;-69
2022/05/28 06:15:33;;;;;;;8.40;1.67;;;16.40;99.90;;;;;;4185841;28;20502;-69
2022/05/28 06:17:34;;;;;;;9.05;2.00;;;16.50;99.90;;;;;;4186634;28;20090;-69
2022/05/28 06:19:35;;;;;;;5.97;1.65;;;16.40;99.90;;;;;;4183899;28;20578;-69
2022/05/28 06:21:35;;;;;;;5.50;1.70;;;16.60;99.90;;;;;;4184159;28;20032;-69
2022/05/28 06:23:36;;;;;;;11.02;2.10;;;16.70;99.90;;;;;;4186722;28;20060;-69
2022/05/28 06:25:38;;;;;;;6.55;1.67;;;16.90;99.90;;;;;;4184267;28;20449;-69
2022/05/28 06:27:39;;;;;;;8.18;2.30;;;16.80;99.90;;;;;;4184213;28;20516;-69
2022/05/28 06:29:40;;;;;;;5.80;1.65;;;17.00;99.90;;;;;;4185784;28;20679;-69
2022/05/28 06:31:40;;;;;;;8.95;1.83;;;16.80;99.90;;;;;;4185854;28;20097;-69
2022/05/28 06:33:41;;;;;;;9.77;2.08;;;17.00;99.90;;;;;;4189222;28;20036;-69
2022/05/28 06:35:42;;;;;;;4.03;1.42;;;17.30;99.90;;;;;;4182671;28;20466;-69
2022/05/28 06:37:43;;;;;;;8.48;1.95;;;17.50;99.90;;;;;;4185861;28;20029;-69
2022/05/28 06:39:43;;;;;;;5.72;2.20;;;17.30;99.90;;;;;;4188101;28;20051;-69
2022/05/28 06:41:44;;;;;;;7.22;1.50;;;17.40;99.90;;;;;;4185062;28;20033;-69
2022/05/28 06:43:44;;;;;;;4.15;1.10;;;17.40;99.90;;;;;;4182423;28;20043;-69
2022/05/28 06:45:45;;;;;;;5.32;1.60;;;17.40;99.90;;;;;;4190382;28;20043;-70
2022/05/28 06:47:46;;;;;;;2.63;1.00;;;17.50;99.90;;;;;;4183884;28;20219;-69
2022/05/28 06:51:01;;;;;;;3.72;1.02;;;17.50;99.90;;;;;;4185751;28;20446;-70
2022/05/28 06:52:07;;;;;;;5.05;1.38;;;17.50;99.90;;;;;;4185723;28;20032;-70
2022/05/28 06:54:07;;;;;;;10.40;1.58;;;17.50;99.90;;;;;;4189325;28;20035;-70
2022/05/28 06:56:09;;;;;;;6.20;1.38;;;17.40;99.90;;;;;;4188924;28;20078;-70
2022/05/28 06:58:10;;;;;;;5.88;1.52;;;17.50;99.90;;;;;;4189632;28;20045;-70
2022/05/28 07:00:11;;;;;;;6.55;1.40;;;17.40;99.90;;;;;;4186722;28;20036;-70
2022/05/28 07:02:12;;;;;;;12.68;1.83;;;17.30;99.90;;;;;;4187243;28;20025;-70
2022/05/28 07:04:12;;;;;;;2.95;1.15;;;17.20;99.90;;;;;;4192286;28;20433;-70
2022/05/28 07:06:13;;;;;;;4.45;1.10;;;17.20;99.90;;;;;;4189930;28;20029;-69
2022/05/28 07:08:14;;;;;;;7.97;1.52;;;17.20;99.90;;;;;;4191161;28;20564;-69
2022/05/28 07:10:15;;;;;;;5.00;1.13;;;17.20;99.90;;;;;;4185869;28;20059;-69
2022/05/28 07:12:15;;;;;;;6.28;1.10;;;17.30;99.90;;;;;;4190853;28;20039;-69
2022/05/28 07:14:16;;;;;;;6.80;1.40;;;17.40;99.90;;;;;;4187326;28;20116;-70
2022/05/28 07:16:16;;;;;;;3.55;1.25;;;17.50;99.90;;;;;;4188828;28;20028;-69
2022/05/28 07:18:18;;;;;;;6.00;1.30;;;17.60;99.90;;;;;;4190842;28;20082;-69
2022/05/28 07:20:19;;;;;;;6.15;1.40;;;17.70;99.90;;;;;;4190333;28;20044;-70
2022/05/28 07:22:19;;;;;;;6.10;1.30;;;17.80;99.90;;;;;;4188933;28;20029;-69
2022/05/28 07:24:20;;;;;;;4.22;1.30;;;17.80;99.90;;;;;;4187913;28;20495;-69
2022/05/28 07:26:21;;;;;;;5.10;1.52;;;17.80;99.90;;;;;;4187169;28;20106;-70
2022/05/28 07:28:28;;;;;;;7.75;1.60;;;17.90;99.90;;;;;;4192606;28;20400;-70
2022/05/28 07:30:28;;;;;;;4.43;1.20;;;17.80;99.90;;;;;;4181976;28;20041;-69
2022/05/28 07:32:31;;;;;;;5.88;1.20;;;17.90;99.90;;;;;;4191545;28;20040;-69
2022/05/28 07:34:32;;;;;;;3.90;1.23;;;18.00;99.90;;;;;;4190166;28;20032;-69
2022/05/28 07:36:35;;;;;;;3.47;1.20;;;18.10;99.90;;;;;;4185867;28;20086;-69
2022/05/28 07:38:37;;;;;;;4.05;1.20;;;18.10;99.20;;;;;;4185620;28;20106;-69
2022/05/28 07:40:38;;;;;;;7.50;1.30;;;18.20;98.70;;;;;;4188548;28;20041;-69
2022/05/28 07:42:38;;;;;;;5.78;1.65;;;18.30;99.90;;;;;;4193107;28;20645;-69
2022/05/28 07:44:39;;;;;;;5.18;1.15;;;18.50;99.90;;;;;;4189673;28;20037;-69
2022/05/28 07:46:40;;;;;;;3.08;1.00;;;18.60;99.20;;;;;;4186900;28;20032;-69
2022/05/28 07:48:41;;;;;;;5.60;1.38;;;18.60;98.40;;;;;;4186213;28;20036;-69
2022/05/28 07:50:42;;;;;;;2.53;1.00;;;18.50;97.90;;;;;;4185692;28;20057;-70
2022/05/28 07:52:44;;;;;;;3.90;1.27;;;18.50;98.30;;;;;;4188689;28;20128;-70
2022/05/28 07:54:46;;;;;;;4.03;1.30;;;18.50;97.20;;;;;;4185654;28;20048;-70
2022/05/28 07:56:46;;;;;;;4.70;1.40;;;18.40;98.20;;;;;;4185519;28;20270;-70
2022/05/28 07:58:47;;;;;;;4.47;1.33;;;18.40;97.20;;;;;;4187314;28;20033;-69
2022/05/28 08:00:49;;;;;;;6.50;1.80;;;18.40;98.10;;;;;;4186105;28;20040;-69
2022/05/28 08:02:49;;;;;;;5.68;1.27;;;18.50;98.70;;;;;;4186784;28;20119;-69
2022/05/28 08:04:50;;;;;;;5.50;1.60;;;18.60;98.30;;;;;;4186475;28;20025;-69
2022/05/28 08:06:51;;;;;;;4.38;1.13;;;18.60;97.40;;;;;;4185421;28;20056;-69
2022/05/28 08:08:52;;;;;;;6.82;1.23;;;18.60;99.10;;;;;;4180767;28;20044;-70
2022/05/28 08:10:53;;;;;;;7.05;1.50;;;18.60;98.90;;;;;;4184106;28;20041;-70
2022/05/28 08:12:53;;;;;;;7.65;1.73;;;18.40;98.10;;;;;;4189217;28;20087;-70
2022/05/28 08:14:54;;;;;;;4.40;1.40;;;18.10;99.00;;;;;;4182923;28;20037;-70
2022/05/28 08:16:54;;;;;;;4.72;1.40;;;18.00;99.00;;;;;;4190975;28;20063;-69
2022/05/28 08:18:55;;;;;;;7.55;1.42;;;18.00;98.80;;;;;;4186040;28;20032;-69
2022/05/28 08:23:18;;;;;;;3.45;1.08;;;18.10;98.00;;;;;;4183337;28;20044;-69
2022/05/28 08:25:19;;;;;;;3.67;1.15;;;18.20;97.10;;;;;;4186715;28;20115;-69
2022/05/28 08:27:19;;;;;;;6.88;1.67;;;18.30;98.70;;;;;;4187824;28;20136;-69
2022/05/28 08:29:22;;;;;;;4.82;1.27;;;18.50;96.20;;;;;;4186640;28;20047;-69
2022/05/28 08:31:24;;;;;;;8.18;1.40;;;18.50;96.40;;;;;;4186926;28;20101;-69
2022/05/28 08:33:25;;;;;;;5.45;1.40;;;18.60;94.00;;;;;;4185469;28;20484;-69
2022/05/28 08:35:25;;;;;;;4.35;0.98;;;18.60;96.50;;;;;;4187386;28;20041;-69
2022/05/28 08:37:26;;;;;;;4.80;1.05;;;18.80;96.60;;;;;;4188578;28;20035;-69
2022/05/28 08:39:26;;;;;;;3.10;0.82;;;18.90;96.50;;;;;;4188939;28;20615;-69
2022/05/28 08:41:52;;;;;;;2.72;1.13;;;19.00;96.20;;;;;;4191599;28;20050;-69
2022/05/28 08:44:02;;;;;;;2.90;1.10;;;19.10;95.70;;;;;;4186100;28;20507;-69
2022/05/28 08:46:04;;;;;;;3.97;1.20;;;19.10;93.90;;;;;;4188107;28;20033;-70
2022/05/28 08:48:05;;;;;;;4.28;1.00;;;18.90;95.90;;;;;;4187765;28;20098;-69
2022/05/28 08:50:07;;;;;;;4.80;1.27;;;18.90;95.20;;;;;;4181746;28;20036;-69
2022/05/28 08:52:40;;;;;;;9.38;1.50;;;18.90;96.00;;;;;;4184233;28;20025;-69
2022/05/28 08:54:56;;;;;;;5.57;1.08;;;18.80;95.00;;;;;;4150713;28;20526;-69
2022/05/28 08:57:02;;;;;;;3.35;1.20;;;19.00;95.30;;;;;;4179755;28;20491;-69
2022/05/28 08:59:20;;;;;;;3.08;0.93;;;19.20;95.60;;;;;;4183159;28;20033;-68
2022/05/28 09:01:22;;;;;;;4.53;1.00;;;19.30;94.90;;;;;;4182670;28;20038;-68
2022/05/28 09:03:32;;;;;;;5.15;1.35;;;19.40;93.70;;;;;;4184422;28;20033;-69
2022/05/28 09:05:40;;;;;;;4.82;1.27;;;19.40;92.80;;;;;;4180339;28;20036;-69
2022/05/28 09:07:41;;;;;;;6.47;1.05;;;19.50;92.40;;;;;;4182809;28;20040;-69
2022/05/28 09:09:48;;;;;;;4.45;1.17;;;19.60;92.80;;;;;;4183411;28;20048;-69
2022/05/28 09:11:56;;;;;;;5.50;1.30;;;19.60;92.40;;;;;;4184479;28;20037;-69
2022/05/28 09:14:08;;;;;;;4.85;1.08;;;19.50;91.70;;;;;;4184826;28;20041;-70
2022/05/28 09:16:25;;;;;;;3.65;1.15;;;19.50;91.40;;;;;;4185317;28;20545;-69
2022/05/28 09:18:33;;;;;;;2.90;1.17;;;19.50;90.90;;;;;;4184556;28;20596;-69
2022/05/28 09:20:43;;;;;;;3.78;1.20;;;19.50;90.20;;;;;;4181246;28;20065;-69
2022/05/28 09:22:44;;;;;;;7.38;1.13;;;19.40;92.20;;;;;;4180546;28;20045;-69
2022/05/28 09:24:45;;;;;;;8.75;1.25;;;19.40;90.30;;;;;;4184503;28;20025;-69
2022/05/28 09:27:19;;;;;;;3.58;1.63;;;19.50;89.70;;;;;;4205465;28;20032;-69
2022/05/28 09:29:44;;;;;;;4.35;1.27;;;19.50;90.30;;;;;;4179978;28;20037;-69
2022/05/28 09:32:12;;;;;;;3.92;1.33;;;19.50;91.50;;;;;;4165466;28;20045;-69
2022/05/28 09:34:31;;;;;;;3.83;1.00;;;19.50;90.90;;;;;;4184481;28;20029;-70
2022/05/28 09:36:50;;;;;;;4.43;1.17;;;19.50;91.30;;;;;;4181928;28;20103;-69
2022/05/28 09:39:19;;;;;;;4.50;1.25;;;19.40;92.40;;;;;;4185802;28;20173;-69
2022/05/28 09:41:38;;;;;;;3.80;1.15;;;19.30;91.40;;;;;;4185032;28;20048;-69
2022/05/28 09:44:06;;;;;;;3.63;1.20;;;19.30;89.80;;;;;;4183270;28;20063;-69
2022/05/28 09:46:23;;;;;;;5.65;0.98;;;19.40;91.20;;;;;;4184660;28;20384;-69
2022/05/28 09:48:26;;;;;;;4.38;1.38;;;19.50;91.50;;;;;;4185380;28;20044;-69
2022/05/28 09:50:30;;;;;;;4.70;1.02;;;19.60;91.50;;;;;;4185621;28;20391;-69
2022/05/28 09:54:16;;;;;;;3.95;1.33;;;19.50;90.60;;;;;;4187563;28;20090;-69
2022/05/28 09:55:11;;;;;;;10.40;1.20;;;19.50;89.80;;;;;;4182469;28;20033;-71
2022/05/28 09:57:25;;;;;;;4.40;1.45;;;19.50;90.90;;;;;;4186455;28;20029;-69
2022/05/28 09:59:29;;;;;;;6.10;1.40;;;19.50;91.50;;;;;;4187614;28;20132;-69
2022/05/28 10:01:29;;;;;;;4.18;1.25;;;19.20;91.70;;;;;;4183624;28;20048;-69
2022/05/28 10:05:54;;;;;;;4.78;1.40;;;18.80;91.40;;;;;;4183675;28;20029;-69
2022/05/28 10:07:55;;;;;;;5.90;1.42;;;18.60;92.00;;;;;;4186769;28;20036;-70
2022/05/28 10:09:55;;;;;;;6.22;1.40;;;18.30;92.20;;;;;;4187160;28;20158;-70
2022/05/28 10:12:16;;;;;;;7.97;1.38;;;18.30;93.20;;;;;;4187285;28;20028;-69
2022/05/28 10:14:16;;;;;;;4.90;1.25;;;18.30;94.30;;;;;;4186217;28;20349;-69
2022/05/28 10:16:23;;;;;;;3.13;1.15;;;18.40;92.40;;;;;;4183698;28;20059;-69
2022/05/28 10:18:31;;;;;;;7.82;1.98;;;18.50;93.50;;;;;;4186532;28;20029;-69
2022/05/28 10:20:31;;;;;;;5.85;1.55;;;18.70;93.10;;;;;;4185241;28;20039;-69
2022/05/28 10:22:37;;;;;;;6.68;1.40;;;18.80;93.70;;;;;;4186998;28;20032;-69
2022/05/28 10:24:48;;;;;;;10.63;1.42;;;18.80;94.70;;;;;;4183606;28;20364;-69
2022/05/28 10:26:55;;;;;;;2.40;0.93;;;18.80;92.90;;;;;;4187257;28;20031;-69
2022/05/28 10:29:00;;;;;;;7.57;1.67;;;18.70;92.50;;;;;;4180020;28;20568;-69
2022/05/28 10:31:01;;;;;;;4.95;1.42;;;18.70;91.80;;;;;;4183933;28;20037;-69
2022/05/28 10:33:13;;;;;;;7.25;1.50;;;18.50;92.10;;;;;;4183125;28;20062;-69
2022/05/28 10:35:19;;;;;;;6.60;1.70;;;18.60;94.00;;;;;;4186213;28;20033;-69
2022/05/28 10:37:19;;;;;;;7.72;1.52;;;18.70;92.50;;;;;;4184296;28;20397;-69
2022/05/28 10:39:20;;;;;;;6.85;1.60;;;18.50;92.00;;;;;;4187850;28;20047;-69
2022/05/28 10:41:26;;;;;;;7.13;1.60;;;18.60;93.20;;;;;;4189618;28;20098;-69
2022/05/28 10:43:36;;;;;;;6.65;1.50;;;18.60;93.30;;;;;;4187329;28;20039;-70
2022/05/28 10:45:49;;;;;;;7.75;1.90;;;18.50;92.90;;;;;;4183124;28;20032;-69